createdAt,value
2019-02-15T00:01:44.306Z,76.28
2019-02-15T00:06:45.853Z,76.03
2019-02-15T00:11:47.469Z,75.76
2019-02-15T00:16:49.091Z,75.76
2019-02-15T00:21:51.057Z,75.68
2019-02-15T00:26:52.656Z,75.58
2019-02-15T00:31:54.244Z,75.75
2019-02-15T00:36:55.891Z,76.11
2019-02-15T00:41:57.814Z,76.98
2019-02-15T00:46:59.421Z,76.69
2019-02-15T00:52:01.015Z,76.34
2019-02-15T00:57:03.373Z,76.24
2019-02-15T01:02:04.901Z,76.19
2019-02-15T01:07:07.359Z,76.23
2019-02-15T01:12:08.946Z,76.33
2019-02-15T01:17:10.533Z,76.20
2019-02-15T01:22:12.189Z,76.21
2019-02-15T01:27:14.170Z,76.32
2019-02-15T01:32:16.140Z,76.38
2019-02-15T01:37:17.714Z,76.45
2019-02-15T01:42:19.374Z,76.59
2019-02-15T01:47:21.008Z,76.95
2019-02-15T01:52:22.545Z,77.07
2019-02-15T01:57:24.135Z,77.08
2019-02-15T02:02:25.695Z,77.05
2019-02-15T02:07:27.263Z,77.11
2019-02-15T02:12:28.822Z,77.26
2019-02-15T02:17:30.395Z,77.51
2019-02-15T02:22:32.020Z,77.50
2019-02-15T02:27:33.629Z,77.50
2019-02-15T02:32:35.215Z,77.29
2019-02-15T02:37:36.779Z,77.41
2019-02-15T02:42:38.879Z,77.31
2019-02-15T02:47:40.441Z,77.45
2019-02-15T02:52:42.011Z,77.53
2019-02-15T02:57:43.589Z,77.39
2019-02-15T03:02:45.187Z,77.32
2019-02-15T03:07:46.756Z,77.32
2019-02-15T03:12:48.335Z,77.33
2019-02-15T03:17:49.894Z,78.09
2019-02-15T03:22:51.510Z,78.18
2019-02-15T03:27:53.490Z,78.36
2019-02-15T03:32:55.152Z,78.31
2019-02-15T03:37:56.739Z,78.11
2019-02-15T03:42:58.669Z,78.13
2019-02-15T03:48:00.316Z,77.93
2019-02-15T03:53:01.890Z,78.05
2019-02-15T03:58:03.505Z,79.01
2019-02-15T04:03:05.058Z,79.02
2019-02-15T04:08:06.684Z,78.94
2019-02-15T04:13:08.226Z,78.98
2019-02-15T04:18:09.798Z,79.52
2019-02-15T04:23:11.385Z,80.07
2019-02-15T04:28:12.962Z,80.04
2019-02-15T04:33:14.543Z,80.23
2019-02-15T04:38:16.133Z,80.22
2019-02-15T04:43:17.673Z,79.70
2019-02-15T04:48:19.252Z,79.58
2019-02-15T04:53:20.890Z,79.79
2019-02-15T04:58:22.469Z,79.90
2019-02-15T05:03:24.127Z,80.21
2019-02-15T05:08:25.704Z,80.47
2019-02-15T05:13:27.772Z,80.69
2019-02-15T05:18:29.374Z,80.93
2019-02-15T05:23:30.930Z,80.91
2019-02-15T05:28:32.485Z,80.91
2019-02-15T05:33:35.670Z,81.10
2019-02-15T05:38:37.879Z,81.07
2019-02-15T05:43:39.437Z,80.86
2019-02-15T05:48:41.045Z,80.60
2019-02-15T05:53:42.673Z,80.19
2019-02-15T05:58:44.405Z,80.43
2019-02-15T06:03:46.005Z,80.14
2019-02-15T06:08:47.991Z,80.14
2019-02-15T06:13:49.656Z,80.72
2019-02-15T06:18:51.263Z,80.81
2019-02-15T06:23:52.876Z,80.69
2019-02-15T06:28:54.498Z,80.96
2019-02-15T06:33:56.106Z,81.08
2019-02-15T06:38:57.726Z,81.01
2019-02-15T06:43:59.350Z,81.00
2019-02-15T06:49:00.912Z,80.74
2019-02-15T06:54:02.481Z,80.86
2019-02-15T06:59:04.091Z,80.91
2019-02-15T07:04:05.876Z,80.82
2019-02-15T07:09:07.537Z,80.83
2019-02-15T07:14:09.600Z,80.66
2019-02-15T07:19:11.210Z,79.69
2019-02-15T07:24:12.844Z,80.52
2019-02-15T07:29:14.852Z,80.57
2019-02-15T07:34:16.448Z,80.42
2019-02-15T07:39:18.009Z,80.31
2019-02-15T07:44:19.628Z,80.21
2019-02-15T07:49:26.962Z,80.02
2019-02-15T07:54:24.890Z,79.92
2019-02-15T07:59:26.479Z,79.99
2019-02-15T08:04:29.093Z,79.92
2019-02-15T08:09:30.641Z,79.73
2019-02-15T08:14:32.271Z,79.72
2019-02-15T08:19:33.959Z,79.53
2019-02-15T08:24:35.536Z,79.37
2019-02-15T08:29:37.176Z,79.25
2019-02-15T08:34:38.789Z,79.10
2019-02-15T08:39:40.416Z,78.84
2019-02-15T08:44:42.055Z,78.75
2019-02-15T08:49:43.613Z,78.51
2019-02-15T08:54:45.210Z,78.03
2019-02-15T08:59:47.157Z,77.94
2019-02-15T09:04:48.830Z,77.76
2019-02-15T09:09:50.474Z,77.37
2019-02-15T09:14:52.109Z,76.75
2019-02-15T09:19:53.703Z,75.85
2019-02-15T09:24:55.297Z,75.06
2019-02-15T09:29:56.995Z,74.35
2019-02-15T09:34:58.605Z,73.37
2019-02-15T09:40:00.302Z,72.07
2019-02-15T09:45:01.998Z,71.06
2019-02-15T09:50:04.656Z,70.33
2019-02-15T09:55:07.495Z,69.01
2019-02-15T10:00:09.160Z,67.98
2019-02-15T10:05:11.814Z,66.44
2019-02-15T10:10:13.435Z,64.88
2019-02-15T10:15:15.058Z,63.57
2019-02-15T10:20:16.691Z,63.34
2019-02-15T10:25:18.730Z,62.68
2019-02-15T10:30:20.327Z,61.21
2019-02-15T10:35:21.913Z,60.03
2019-02-15T10:40:23.596Z,59.91
2019-02-15T10:45:25.144Z,58.28
2019-02-15T10:50:27.361Z,57.86
2019-02-15T10:55:29.137Z,57.48
2019-02-15T11:00:30.904Z,57.30
2019-02-15T11:05:32.903Z,57.61
2019-02-15T11:10:34.462Z,57.07
2019-02-15T11:15:36.042Z,55.92
2019-02-15T11:20:37.672Z,55.54
2019-02-15T11:25:39.239Z,53.90
2019-02-15T11:30:40.841Z,55.66
2019-02-15T11:35:42.454Z,55.86
2019-02-15T11:40:44.586Z,55.07
2019-02-15T11:45:46.222Z,55.54
2019-02-15T11:50:47.789Z,54.90
2019-02-15T11:55:49.332Z,52.91
2019-02-15T12:00:50.971Z,54.61
2019-02-15T12:05:52.667Z,57.25
2019-02-15T12:10:54.947Z,55.54
2019-02-15T12:15:56.662Z,55.12
2019-02-15T12:20:58.728Z,53.07
2019-02-15T12:26:00.396Z,57.35
2019-02-15T12:31:01.975Z,58.49
2019-02-15T12:36:03.574Z,58.13
2019-02-15T12:41:05.126Z,57.39
2019-02-15T12:46:07.070Z,59.48
2019-02-15T12:51:08.648Z,61.80
2019-02-15T12:56:12.802Z,63.61
2019-02-15T13:01:14.753Z,62.26
2019-02-15T13:06:16.309Z,62.30
2019-02-15T13:11:17.863Z,65.08
2019-02-15T13:16:19.694Z,64.56
2019-02-15T13:21:21.238Z,65.02
2019-02-15T13:26:24.126Z,66.68
2019-02-15T13:31:25.968Z,67.74
2019-02-15T13:36:28.396Z,64.79
2019-02-15T13:41:31.071Z,63.91
2019-02-15T13:46:33.395Z,65.39
2019-02-15T13:51:35.596Z,61.42
2019-02-15T13:56:37.154Z,58.35
2019-02-15T14:01:39.083Z,58.21
2019-02-15T14:06:40.641Z,62.47
2019-02-15T14:11:42.191Z,59.75
2019-02-15T14:16:43.763Z,64.71
2019-02-15T14:21:45.977Z,62.01
2019-02-15T14:26:48.058Z,65.07
2019-02-15T14:31:49.986Z,66.29
2019-02-15T14:36:51.873Z,65.53
2019-02-15T14:41:53.773Z,66.16
2019-02-15T14:46:55.404Z,63.94
2019-02-15T14:51:56.997Z,65.27
2019-02-15T14:56:58.985Z,62.81
2019-02-15T15:02:01.089Z,64.44
2019-02-15T15:07:02.696Z,65.94
2019-02-15T15:12:04.437Z,64.36
2019-02-15T15:17:06.015Z,63.92
2019-02-15T15:22:07.665Z,61.05
2019-02-15T15:27:09.228Z,65.52
2019-02-15T15:32:11.414Z,66.67
2019-02-15T15:37:16.561Z,65.25
2019-02-15T15:42:17.086Z,65.96
2019-02-15T15:47:18.856Z,64.57
2019-02-15T15:52:20.560Z,64.97
2019-02-15T15:57:22.202Z,62.79
2019-02-15T16:02:24.172Z,60.96
2019-02-15T16:07:26.048Z,62.16
2019-02-15T16:12:27.747Z,58.91
2019-02-15T16:17:29.747Z,57.29
2019-02-15T16:22:31.473Z,59.25
2019-02-15T16:27:33.108Z,61.14
2019-02-15T16:32:34.721Z,64.23
2019-02-15T16:37:36.331Z,62.94
2019-02-15T16:42:38.073Z,56.15
2019-02-15T16:47:39.786Z,61.95
2019-02-15T16:52:41.521Z,55.98
2019-02-15T16:57:43.074Z,55.94
2019-02-15T17:02:44.811Z,53.45
2019-02-15T17:07:46.425Z,53.09
2019-02-15T17:12:48.054Z,52.53
2019-02-15T17:17:49.697Z,54.15
2019-02-15T17:22:51.292Z,55.55
2019-02-15T17:27:52.853Z,57.11
2019-02-15T17:32:54.475Z,56.22
2019-02-15T17:37:56.418Z,55.61
2019-02-15T17:42:58.728Z,56.39
2019-02-15T17:48:00.779Z,61.79
2019-02-15T17:53:02.759Z,66.46
2019-02-15T17:58:04.371Z,68.38
2019-02-15T18:03:05.992Z,69.74
2019-02-15T18:08:07.615Z,70.50
2019-02-15T18:13:09.632Z,70.90
2019-02-15T18:18:11.253Z,70.75
2019-02-15T18:23:13.125Z,70.51
2019-02-15T18:28:14.797Z,70.47
2019-02-15T18:33:16.431Z,70.93
2019-02-15T18:38:19.024Z,70.90
2019-02-15T18:43:21.101Z,70.94
2019-02-15T18:48:22.679Z,71.90
2019-02-15T18:53:24.352Z,72.09
2019-02-15T18:58:26.053Z,71.19
2019-02-15T19:03:27.761Z,71.34
2019-02-15T19:08:29.796Z,71.00
2019-02-15T19:13:31.381Z,70.94
2019-02-15T19:18:33.901Z,69.85
2019-02-15T19:23:35.529Z,68.08
2019-02-15T19:28:37.112Z,68.78
2019-02-15T19:33:39.104Z,68.14
2019-02-15T19:38:40.939Z,68.60
2019-02-15T19:43:43.872Z,71.11
2019-02-15T19:48:45.458Z,71.44
2019-02-15T19:53:47.084Z,70.40
2019-02-15T19:58:48.762Z,67.53
2019-02-15T20:03:50.422Z,66.67
2019-02-15T20:08:52.089Z,67.17
2019-02-15T20:13:53.755Z,67.57
2019-02-15T20:18:56.350Z,67.76
2019-02-15T20:23:58.052Z,66.76
2019-02-15T20:28:59.645Z,66.79
2019-02-15T20:34:01.223Z,67.00
2019-02-15T20:39:02.913Z,67.21
2019-02-15T20:44:04.890Z,67.14
2019-02-15T20:49:07.547Z,67.87
2019-02-15T20:54:09.258Z,67.87
2019-02-15T20:59:10.892Z,68.73
2019-02-15T21:04:12.928Z,71.03
2019-02-15T21:09:15.616Z,72.48
2019-02-15T21:14:17.666Z,72.12
2019-02-15T21:19:19.851Z,70.53
2019-02-15T21:24:21.573Z,69.57
2019-02-15T21:29:25.323Z,69.19
2019-02-15T21:34:26.971Z,69.31
2019-02-15T21:39:28.802Z,69.45
2019-02-15T21:44:30.413Z,70.05
2019-02-15T21:49:32.095Z,70.27
2019-02-15T21:54:33.661Z,70.67
2019-02-15T21:59:35.431Z,71.18
2019-02-15T22:04:37.205Z,71.80
2019-02-15T22:09:39.110Z,72.18
2019-02-15T22:14:40.712Z,72.32
2019-02-15T22:19:42.391Z,72.07
2019-02-15T22:24:43.942Z,72.02
2019-02-15T22:29:45.499Z,71.35
2019-02-15T22:34:47.046Z,71.32
2019-02-15T22:39:48.618Z,70.83
2019-02-15T22:44:50.577Z,70.88
2019-02-15T22:49:52.195Z,71.55
2019-02-15T22:54:55.279Z,72.85
2019-02-15T23:00:00.976Z,73.42
2019-02-15T23:05:00.406Z,73.70
2019-02-15T23:10:02.402Z,73.67
2019-02-15T23:15:04.015Z,73.87
2019-02-15T23:20:05.799Z,74.06
2019-02-15T23:25:07.436Z,74.14
2019-02-15T23:30:09.399Z,74.21
2019-02-15T23:35:11.024Z,74.51
2019-02-15T23:40:12.582Z,74.31
2019-02-15T23:45:14.199Z,74.40
2019-02-15T23:50:15.726Z,74.61
2019-02-15T23:55:17.380Z,74.70
